METAR AND TAF INFORMATION

METAR FOR LYTV
ADDS - METARS form results

(2304 UTC 10 December 2019)
Data provider http://aviationweather.gov/metar/data/
 
METAR text: LYTV 102300Z 01013G23KT CAVOK 12/M02 Q1009
Conditions at: LYTV (TIVAT , CS) observed 2300 UTC 10 December 2019
Temperature: 12.0°C (54°F)
Dewpoint: -2.0°C (28°F) [RH = 38%]
Pressure (altimeter): 29.79 inches Hg (1009.0 mb)
Winds: from the N (10 degrees) at 15 MPH (13 knots; 6.7 m/s)
gusting to 26 MPH (23 knots; 11.8 m/s)
Visibility: 6 or more miles (10+ km)
Ceiling: ceiling and visibility are OK
Clouds: unknown
Weather: no significant weather observed at this time

METAR text: LYTV 102230Z 01014G27KT CAVOK 12/M02 Q1010
Conditions at: LYTV (TIVAT , CS) observed 2230 UTC 10 December 2019
Temperature: 12.0°C (54°F)
Dewpoint: -2.0°C (28°F) [RH = 38%]
Pressure (altimeter): 29.82 inches Hg (1010.0 mb)
Winds: from the N (10 degrees) at 16 MPH (14 knots; 7.2 m/s)
gusting to 31 MPH (27 knots; 13.9 m/s)
Visibility: 6 or more miles (10+ km)
Ceiling: ceiling and visibility are OK
Clouds: unknown
Weather: no significant weather observed at this time

Forecast for: LYTV (TIVAT , CS)
Text: TAF LYTV 101700Z 1018/1118 02015G25KT 9999 FEW040 TX14/1113Z TN06/1104Z
Forecast period: 1800 UTC 10 December 2019 to 1800 UTC 11 December 2019
Forecast type: FROM: standard forecast or significant change
Winds: from the NNE (20 degrees) at 17 MPH (15 knots; 7.7 m/s)
gusting to 29 MPH (25 knots; 12.9 m/s)
Visibility: 6 or more miles 10+ km)
Ceiling: at least 12,000 feet AGL
Clouds: few clouds at 4000 feet AGL
Weather: no significant weather forecast for this period
Text: TEMPO 1019/1106 02018G38KT
Forecast period: 1900 UTC 10 December 2019 to 0600 UTC 11 December 2019
Forecast type: TEMPORARY: The following changes expected for less than half the time period
Winds: from the NNE (20 degrees) at 21 MPH (18 knots; 9.3 m/s)
gusting to 44 MPH (38 knots; 19.5 m/s)
Visibility: missing
Ceiling: unknown
Clouds: missing
Weather: no significant weather forecast for this period

 AIRPORT MAP

 RUNWAY INFORMATION

Runway 14 Runway length 8208 ft Runway width 148 ft
Runway elevation 7 ft Runway displaced threshold 0 ft Runway heading 139
Runway 32 Runway length 8208 ft Runway width 148 ft
Runway elevation 16 ft Runway displaced threshold 0 ft Runway heading 319

 AIRPORT FREQUENCIES

Type ARR Name APP Frequency 118 MHZ
Type TWR Name TWR Frequency 118 MHZ

 AIRPORT NEAR NAVIGATION AIDS

Type NDB Name Tivat Frequency 345 KHZ